x

Bw Pioneer Buoy - Walker Ridge 249 (42360) Wave Buoy

7:00am - Fri 30th Jan 2015 All times are UTC.

  • Sig Wave height 1.6ft
  • Peak Period 5s
  • Wind
    9mph, 13mph gusts
  • Sea Temp 77°f
  • Air Temp 72°f
  • Sea Pressure 1024.4mb

More Historic Weather Station data

Upgrade to MSW Pro to gain access to the past 30 days of data for over 8000 Wavebouys and Weather Stations around the globe.

Join Pro

Comparision Forecast

View Surf forecast
   
Fri 01/30 7:00am 1.6ft 5s 9 13 mph 1024.4mb 77f 72f
6:00am 1.6ft 5s 7 9 mph 1024.4mb 77f 72f
5:00am 1.6ft 5s 7 11 mph 1024.6mb 77f 72f
4:00am 1.3ft 5s 7 11 mph 1024.6mb 76f 72f
3:00am 1ft 5s 4 7 mph 1024.6mb 77f 72f
2:00am 1.3ft 5s 7 9 mph 1024.2mb 78f 72f
1:00am 1.3ft 6s 4 9 mph 1023.7mb 78f 72f
12:00am 1.3ft 5s 4 9 mph 1023.2mb 78f 72f
Thu 01/29 11:00pm 1.3ft 5s 2 7 mph 1023.2mb 78f 73f
10:00pm 1.6ft 5s 2 4 mph 1023.1mb 78f 72f
9:00pm 1.6ft 6s 4 7 mph 1022.6mb 78f 72f
8:00pm 1.6ft 6s 4 11 mph 1022.9mb 77f 72f
7:00pm 1.6ft 6s 7 11 mph 1023.5mb 77f 72f
6:00pm 1.6ft 5s 9 13 mph 1024.2mb 77f 72f
5:00pm 1.6ft 6s 13 18 mph 1024.4mb 78f 72f
4:00pm 2ft 6s 11 16 mph 1024.7mb 77f 72f
3:00pm 1.6ft 5s 9 13 mph 1024.7mb 77f 72f
2:00pm 2ft 5s 7 9 mph 1024.6mb 77f 72f
1:00pm 1.6ft 6s 7 11 mph 1024.2mb 77f 71f
12:00pm 2ft 5s 4 9 mph 1023.8mb 77f 71f
11:00am 2ft 5s 7 13 mph 1023.1mb 78f 71f
10:00am 2ft 5s 11 18 mph 1022.6mb 78f 71f
9:00am 2ft 5s 9 18 mph 1022.5mb 78f 71f
8:00am 2.5ft 5s 13 27 mph 1022.4mb 78f 72f
7:00am 2.5ft 5s 16 20 mph 1021.9mb 78f 72f
6:00am 2.5ft 5s 16 25 mph 1021.6mb 78f 72f
5:00am 2.5ft 5s 16 22 mph 1022.2mb 78f 72f
4:00am 2.5ft 5s 13 18 mph 1023.1mb 78f 73f
3:00am 2ft 6s 13 18 mph 1023.2mb 78f 73f
2:00am 2ft 5s 11 16 mph 1023.3mb 78f 73f
1:00am 2ft 5s 9 11 mph 1022.7mb 78f 73f
12:00am 2ft 6s 9 18 mph 1022.4mb 78f 73f
Wed 01/28 11:00pm 2ft 6s 11 13 mph 1022.5mb 78f 73f
10:00pm 2.5ft 6s 9 13 mph 1022.2mb 78f 73f
9:00pm 2.5ft 6s 7 11 mph 1022.4mb 78f 73f
8:00pm 3ft 6s 9 13 mph 1022.6mb 76f 72f
Tue 01/27 5:00pm  -   -   -  mph - - 71f
4:00pm 4ft 5s 4 13 mph 1022mb 74f 71f
3:00pm 4.5ft 5s 4 11 mph 1021.4mb 72f 71f
2:00pm 4.5ft 6s 18 27 mph 1020.8mb 70f 69f
1:00pm 3.5ft 8s 9 18 mph 1020.5mb 69f 68f
12:00pm 4ft 8s 11 18 mph 1019.9mb 68f 67f
11:00am 4.5ft 7s 13 20 mph 1019.7mb 67f 67f
10:00am 3.5ft 7s 11 16 mph 1019.7mb 66f 66f
9:00am 5ft 5s 7 18 mph 1019.8mb 65f 67f
8:00am 5ft 6s 4 13 mph 1019.8mb 65f 67f
7:00am 5.5ft 5s 4 13 mph 1019.9mb 65f 66f
6:00am 6ft 5s 4 13 mph 1020.4mb 65f 66f
5:00am 6ft 5s 4 16 mph 1020.6mb 65f 66f
4:00am 7.5ft 6s 4 13 mph 1020.6mb 65f 65f
3:00am  -   -  4 16 mph 1020.5mb 64f 67f
2:00am  -   -  7 22 mph 1020mb 64f 67f